createdAt,value
2022-08-21T00:01:40.048Z,95246.84
2022-08-21T00:04:08.335Z,95250.34
2022-08-21T00:06:36.184Z,95243.66
2022-08-21T00:09:06.669Z,95236.41
2022-08-21T00:11:37.823Z,95235.31
2022-08-21T00:14:06.990Z,95239.09
2022-08-21T00:16:33.625Z,95237.47
2022-08-21T00:19:00.477Z,95242.59
2022-08-21T00:21:27.156Z,95246.38
2022-08-21T00:23:53.986Z,95244.47
2022-08-21T00:26:20.593Z,95240.50
2022-08-21T00:28:47.579Z,95249.34
2022-08-21T00:31:14.123Z,95241.03
2022-08-21T00:33:40.664Z,95241.56
2022-08-21T00:36:07.558Z,95242.09
2022-08-21T00:38:34.736Z,95242.38
2022-08-21T00:41:29.827Z,95243.47
2022-08-21T00:43:52.880Z,95239.97
2022-08-21T00:46:19.631Z,95239.22
2022-08-21T00:48:46.303Z,95230.88
2022-08-21T00:51:26.724Z,95226.34
2022-08-21T00:53:58.621Z,95231.13
2022-08-21T00:56:26.789Z,95216.13
2022-08-21T00:58:55.016Z,95219.63
2022-08-21T01:01:22.530Z,95215.31
2022-08-21T01:03:50.442Z,95209.44
2022-08-21T01:06:17.386Z,95220.41
2022-08-21T01:08:47.117Z,95222.31
2022-08-21T01:11:18.090Z,95220.16
2022-08-21T01:13:47.456Z,95213.22
2022-08-21T01:16:17.844Z,95215.91
2022-08-21T01:18:45.431Z,95211.09
2022-08-21T01:21:16.447Z,95220.72
2022-08-21T01:23:48.094Z,95214.28
2022-08-21T01:26:17.221Z,95212.66
2022-08-21T01:28:46.813Z,95215.91
2022-08-21T01:31:16.258Z,95213.22
2022-08-21T01:33:43.502Z,95202.50
2022-08-21T01:36:10.470Z,95206.00
2022-08-21T01:38:37.009Z,95206.50
2022-08-21T01:41:03.603Z,95207.31
2022-08-21T01:43:32.411Z,95200.63
2022-08-21T01:46:05.898Z,95205.72
2022-08-21T01:48:32.832Z,95204.91
2022-08-21T01:51:00.300Z,95195.03
2022-08-21T01:53:28.505Z,95195.31
2022-08-21T01:56:00.254Z,95201.75
2022-08-21T01:58:26.900Z,95191.56
2022-08-21T02:00:53.537Z,95199.34
2022-08-21T02:03:26.371Z,95191.56
2022-08-21T02:06:03.384Z,95191.03
2022-08-21T02:08:29.960Z,95187.53
2022-08-21T02:10:56.498Z,95192.13
2022-08-21T02:13:23.088Z,95192.38
2022-08-21T02:15:49.748Z,95176.81
2022-08-21T02:18:16.737Z,95173.63
2022-08-21T02:20:48.231Z,95174.16
2022-08-21T02:23:15.893Z,95184.63
2022-08-21T02:25:43.207Z,95180.06
2022-08-21T02:28:13.781Z,95176.31
2022-08-21T02:30:48.231Z,95175.28
2022-08-21T02:33:16.209Z,95170.47
2022-08-21T02:35:44.587Z,95180.66
2022-08-21T02:38:14.893Z,95183.88
2022-08-21T02:40:48.185Z,95184.13
2022-08-21T02:43:16.532Z,95189.22
2022-08-21T02:45:44.226Z,95176.59
2022-08-21T02:48:13.476Z,95184.38
2022-08-21T02:50:52.259Z,95179.00
2022-08-21T02:53:19.104Z,95187.88
2022-08-21T02:55:48.278Z,95183.31
2022-08-21T02:58:17.553Z,95189.78
2022-08-21T03:00:44.959Z,95188.72
2022-08-21T03:03:11.702Z,95187.63
2022-08-21T03:05:38.714Z,95183.91
2022-08-21T03:08:12.079Z,95192.19
2022-08-21T03:10:40.924Z,95188.75
2022-08-21T03:13:08.267Z,95189.50
2022-08-21T03:15:35.001Z,95182.84
2022-08-21T03:18:02.152Z,95180.44
2022-08-21T03:20:29.800Z,95181.78
2022-08-21T03:22:56.770Z,95180.72
2022-08-21T03:25:39.990Z,95180.69
2022-08-21T03:28:12.862Z,95183.38
2022-08-21T03:30:48.092Z,95169.44
2022-08-21T03:33:15.780Z,95172.94
2022-08-21T03:35:49.925Z,95178.53
2022-08-21T03:38:16.523Z,95177.75
2022-08-21T03:40:44.239Z,95178.53
2022-08-21T03:43:11.185Z,95185.53
2022-08-21T03:45:38.856Z,95184.97
2022-08-21T03:48:07.847Z,95182.56
2022-08-21T03:50:41.243Z,95183.38
2022-08-21T03:53:17.324Z,95182.56
2022-08-21T03:55:49.830Z,95182.56
2022-08-21T03:58:18.087Z,95184.72
2022-08-21T04:00:49.937Z,95181.78
2022-08-21T04:03:16.869Z,95176.94
2022-08-21T04:05:46.212Z,95181.50
2022-08-21T04:08:13.404Z,95184.44
2022-08-21T04:10:41.118Z,95182.56
2022-08-21T04:13:08.736Z,95181.75
2022-08-21T04:15:36.022Z,95188.72
2022-08-21T04:18:04.588Z,95187.66
2022-08-21T04:20:31.182Z,95192.47
2022-08-21T04:22:57.817Z,95198.38
2022-08-21T04:25:26.511Z,95196.78
2022-08-21T04:27:53.982Z,95195.13
2022-08-21T04:30:20.898Z,95197.81
2022-08-21T04:32:50.150Z,95204.78
2022-08-21T04:35:19.776Z,95203.16
2022-08-21T04:37:46.329Z,95196.72
2022-08-21T04:40:15.363Z,95203.66
2022-08-21T04:43:08.673Z,95209.84
2022-08-21T04:45:38.293Z,95214.41
2022-08-21T04:48:13.727Z,95214.94
2022-08-21T04:50:45.954Z,95202.06
2022-08-21T04:53:20.723Z,95212.78
2022-08-21T04:55:48.090Z,95206.31
2022-08-21T04:58:18.527Z,95207.41
2022-08-21T05:00:46.910Z,95206.03
2022-08-21T05:03:17.531Z,95209.56
2022-08-21T05:05:44.652Z,95203.91
2022-08-21T05:08:15.449Z,95210.59
2022-08-21T05:10:43.444Z,95219.16
2022-08-21T05:13:10.904Z,95220.19
2022-08-21T05:15:38.432Z,95216.19
2022-08-21T05:18:05.030Z,95213.25
2022-08-21T05:20:31.568Z,95214.31
2022-08-21T05:22:58.782Z,95227.72
2022-08-21T05:25:26.147Z,95219.69
2022-08-21T05:27:54.846Z,95223.38
2022-08-21T05:30:21.669Z,95222.81
2022-08-21T05:32:48.823Z,95230.34
2022-08-21T05:35:16.134Z,95224.94
2022-08-21T05:37:42.686Z,95225.19
2022-08-21T05:40:22.777Z,95221.41
2022-08-21T05:42:54.594Z,95226.22
2022-08-21T05:45:41.718Z,95225.94
2022-08-21T05:48:11.693Z,95221.09
2022-08-21T05:50:39.885Z,95222.44
2022-08-21T05:53:08.004Z,95221.06
2022-08-21T05:55:34.778Z,95222.66
2022-08-21T05:58:01.717Z,95214.56
2022-08-21T06:00:28.427Z,95219.63
2022-08-21T06:02:55.184Z,95221.22
2022-08-21T06:05:36.945Z,95208.56
2022-08-21T06:08:04.925Z,95216.03
2022-08-21T06:10:32.222Z,95219.47
2022-08-21T06:12:59.020Z,95212.47
2022-08-21T06:15:25.716Z,95211.06
2022-08-21T06:17:54.342Z,95212.13
2022-08-21T06:20:21.096Z,95208.56
2022-08-21T06:22:47.903Z,95203.16
2022-08-21T06:25:14.614Z,95207.13
2022-08-21T06:27:41.181Z,95202.78
2022-08-21T06:30:08.451Z,95202.19
2022-08-21T06:32:35.715Z,95204.53
2022-08-21T06:35:02.260Z,95206.88
2022-08-21T06:37:29.073Z,95196.31
2022-08-21T06:39:55.704Z,95190.31
2022-08-21T06:42:22.406Z,95207.72
2022-08-21T06:44:54.786Z,95208.19
2022-08-21T06:47:21.294Z,95211.81
2022-08-21T06:49:47.899Z,95202.63
2022-08-21T06:52:15.228Z,95208.16
2022-08-21T06:54:42.504Z,95195.41
2022-08-21T06:57:09.131Z,95205.84
2022-08-21T06:59:35.997Z,95206.59
2022-08-21T07:02:02.763Z,95207.81
2022-08-21T07:04:29.330Z,95202.66
2022-08-21T07:06:55.943Z,95199.09
2022-08-21T07:09:24.842Z,95200.91
2022-08-21T07:11:54.674Z,95201.38
2022-08-21T07:14:21.784Z,95196.69
2022-08-21T07:16:49.571Z,95194.22
2022-08-21T07:19:16.149Z,95196.84
2022-08-21T07:21:42.744Z,95188.38
2022-08-21T07:24:09.963Z,95187.00
2022-08-21T07:26:36.488Z,95194.50
2022-08-21T07:29:03.777Z,95191.50
2022-08-21T07:31:30.451Z,95187.97
2022-08-21T07:33:57.030Z,95195.75
2022-08-21T07:36:23.688Z,95195.44
2022-08-21T07:38:52.766Z,95186.78
2022-08-21T07:41:23.531Z,95185.66
2022-08-21T07:43:52.798Z,95194.25
2022-08-21T07:46:20.629Z,95191.00
2022-08-21T07:48:47.526Z,95193.91
2022-08-21T07:51:16.378Z,95191.44
2022-08-21T07:53:42.853Z,95191.22
2022-08-21T07:56:12.009Z,95199.25
2022-08-21T07:58:38.818Z,95195.44
2022-08-21T08:01:07.432Z,95195.66
2022-08-21T08:03:34.320Z,95193.47
2022-08-21T08:06:00.935Z,95192.88
2022-08-21T08:08:28.566Z,95189.09
2022-08-21T08:10:58.156Z,95189.28
2022-08-21T08:13:25.502Z,95198.72
2022-08-21T08:15:52.371Z,95189.50
2022-08-21T08:18:19.132Z,95194.31
2022-08-21T08:20:45.917Z,95193.81
2022-08-21T08:23:13.874Z,95199.41
2022-08-21T08:25:40.534Z,95194.50
2022-08-21T08:28:16.955Z,95188.72
2022-08-21T08:30:45.630Z,95190.25
2022-08-21T08:33:12.557Z,95178.38
2022-08-21T08:35:39.750Z,95181.47
2022-08-21T08:38:06.749Z,95172.50
2022-08-21T08:40:52.842Z,95171.91
2022-08-21T08:43:20.170Z,95166.72
2022-08-21T08:45:54.469Z,95163.41
2022-08-21T08:48:53.039Z,95167.59
2022-08-21T08:51:46.577Z,95172.44
2022-08-21T08:54:18.997Z,95185.31
2022-08-21T08:56:46.224Z,95182.25
2022-08-21T08:59:19.014Z,95175.84
2022-08-21T09:01:45.969Z,95168.66
2022-08-21T09:04:14.550Z,95174.66
2022-08-21T09:07:10.178Z,95167.41
2022-08-21T09:09:39.648Z,95170.22
2022-08-21T09:12:26.183Z,95165.81
2022-08-21T09:15:23.043Z,95166.81
2022-08-21T09:18:02.138Z,95166.41
2022-08-21T09:20:49.400Z,95157.38
2022-08-21T09:23:32.283Z,95165.16
2022-08-21T09:26:07.597Z,95164.63
2022-08-21T09:28:37.745Z,95161.31
2022-08-21T09:31:12.792Z,95165.28
2022-08-21T09:33:39.361Z,95166.38
2022-08-21T09:36:06.172Z,95154.97
2022-08-21T09:38:37.696Z,95155.16
2022-08-21T09:41:09.890Z,95156.63
2022-08-21T09:43:37.948Z,95160.94
2022-08-21T09:46:13.630Z,95169.75
2022-08-21T09:48:46.834Z,95158.13
2022-08-21T09:51:18.525Z,95160.53
2022-08-21T09:53:50.128Z,95158.31
2022-08-21T09:56:47.202Z,95156.13
2022-08-21T09:59:21.122Z,95155.50
2022-08-21T10:01:54.799Z,95160.09
2022-08-21T10:04:24.719Z,95159.59
2022-08-21T10:06:51.388Z,95154.19
2022-08-21T10:09:21.799Z,95153.28
2022-08-21T10:11:57.363Z,95162.34
2022-08-21T10:14:47.919Z,95153.66
2022-08-21T10:17:29.473Z,95151.63
2022-08-21T10:20:12.058Z,95155.00
2022-08-21T10:22:57.647Z,95144.38
2022-08-21T10:25:31.274Z,95153.41
2022-08-21T10:28:45.100Z,95159.00
2022-08-21T10:31:28.495Z,95156.00
2022-08-21T10:34:19.422Z,95149.47
2022-08-21T10:37:10.721Z,95157.38
2022-08-21T10:40:16.738Z,95158.31
2022-08-21T10:42:49.485Z,95157.03
2022-08-21T10:45:48.681Z,95160.03
2022-08-21T10:48:35.454Z,95174.66
2022-08-21T10:51:40.596Z,95174.47
2022-08-21T10:54:39.102Z,95162.47
2022-08-21T10:57:31.980Z,95173.09
2022-08-21T11:00:14.130Z,95174.34
2022-08-21T11:02:43.388Z,95173.53
2022-08-21T11:05:18.353Z,95172.91
2022-08-21T11:07:52.652Z,95180.56
2022-08-21T11:10:25.999Z,95171.69
2022-08-21T11:13:00.097Z,95169.47
2022-08-21T11:15:35.900Z,95168.56
2022-08-21T11:18:24.346Z,95169.97
2022-08-21T11:21:02.320Z,95166.16
2022-08-21T11:23:58.503Z,95175.19
2022-08-21T11:26:39.225Z,95161.56
2022-08-21T11:29:17.560Z,95170.75
2022-08-21T11:31:56.367Z,95164.47
2022-08-21T11:34:31.541Z,95159.16
2022-08-21T11:37:21.108Z,95163.06
2022-08-21T11:40:09.936Z,95157.88
2022-08-21T11:42:52.296Z,95161.25
2022-08-21T11:45:46.479Z,95147.25
2022-08-21T11:48:24.455Z,95145.53
2022-08-21T11:50:52.691Z,95143.31
2022-08-21T11:53:27.157Z,95143.00
2022-08-21T11:55:58.086Z,95138.59
2022-08-21T11:58:47.730Z,95138.28
2022-08-21T12:01:20.822Z,95143.06
2022-08-21T12:03:57.946Z,95142.59
2022-08-21T12:06:34.146Z,95140.47
2022-08-21T12:09:08.702Z,95132.69
2022-08-21T12:11:51.001Z,95129.97
2022-08-21T12:14:20.326Z,95126.19
2022-08-21T12:16:50.409Z,95132.88
2022-08-21T12:19:25.890Z,95141.47
2022-08-21T12:21:58.244Z,95144.69
2022-08-21T12:24:27.871Z,95147.88
2022-08-21T12:27:14.263Z,95147.88
2022-08-21T12:29:48.156Z,95150.28
2022-08-21T12:32:14.653Z,95140.25
2022-08-21T12:34:49.437Z,95136.44
2022-08-21T12:37:23.521Z,95120.72
2022-08-21T12:39:53.422Z,95115.81
2022-08-21T12:42:24.615Z,95101.81
2022-08-21T12:44:56.224Z,95095.28
2022-08-21T12:47:32.844Z,95090.38
2022-08-21T12:50:14.014Z,95096.91
2022-08-21T12:52:57.032Z,95089.25
2022-08-21T12:55:32.844Z,95101.69
2022-08-21T12:57:59.936Z,95100.56
2022-08-21T13:00:30.476Z,95096.75
2022-08-21T13:02:58.326Z,95112.81
2022-08-21T13:05:34.507Z,95130.41
2022-08-21T13:08:05.790Z,95155.88
2022-08-21T13:10:35.007Z,95150.47
2022-08-21T13:13:12.739Z,95139.03
2022-08-21T13:15:41.990Z,95123.44
2022-08-21T13:18:28.576Z,95133.94
2022-08-21T13:21:12.098Z,95132.81
2022-08-21T13:23:38.844Z,95145.56
2022-08-21T13:26:18.387Z,95149.34
2022-08-21T13:28:48.531Z,95159.66
2022-08-21T13:31:23.164Z,95152.66
2022-08-21T13:33:51.418Z,95136.94
2022-08-21T13:36:25.246Z,95125.81
2022-08-21T13:38:53.786Z,95125.00
2022-08-21T13:41:26.826Z,95142.34
2022-08-21T13:44:18.432Z,95140.25
2022-08-21T13:46:48.926Z,95140.09
2022-08-21T13:49:19.548Z,95145.00
2022-08-21T13:51:47.724Z,95146.38
2022-08-21T13:54:21.376Z,95153.53
2022-08-21T13:56:48.172Z,95152.53
2022-08-21T13:59:27.288Z,95149.34
2022-08-21T14:02:00.035Z,95153.78
2022-08-21T14:04:57.691Z,95147.97
2022-08-21T14:07:37.924Z,95155.59
2022-08-21T14:10:12.619Z,95159.09
2022-08-21T14:12:44.406Z,95150.19
2022-08-21T14:15:15.470Z,95149.69
2022-08-21T14:17:43.325Z,95149.19
2022-08-21T14:20:13.207Z,95155.66
2022-08-21T14:22:42.118Z,95160.56
2022-08-21T14:25:11.776Z,95153.59
2022-08-21T14:27:45.688Z,95154.66
2022-08-21T14:30:27.044Z,95167.69
2022-08-21T14:32:54.240Z,95164.50
2022-08-21T14:35:23.799Z,95156.97
2022-08-21T14:37:51.538Z,95155.41
2022-08-21T14:40:19.743Z,95146.50
2022-08-21T14:42:47.543Z,95151.09
2022-08-21T14:45:24.408Z,95155.41
2022-08-21T14:47:53.937Z,95160.81
2022-08-21T14:50:20.800Z,95160.81
2022-08-21T14:52:47.409Z,95163.50
2022-08-21T14:55:15.338Z,95170.19
2022-08-21T14:57:45.664Z,95160.81
2022-08-21T15:00:14.766Z,95165.81
2022-08-21T15:02:41.294Z,95177.72
2022-08-21T15:05:08.067Z,95172.13
2022-08-21T15:07:34.600Z,95182.84
2022-08-21T15:10:01.194Z,95166.03
2022-08-21T15:12:28.221Z,95170.22
2022-08-21T15:14:54.990Z,95171.81
2022-08-21T15:17:21.609Z,95167.63
2022-08-21T15:19:48.312Z,95166.63
2022-08-21T15:22:18.556Z,95163.94
2022-08-21T15:24:54.130Z,95165.41
2022-08-21T15:27:20.766Z,95169.13
2022-08-21T15:29:47.530Z,95168.22
2022-08-21T15:32:23.991Z,95171.09
2022-08-21T15:34:52.192Z,95163.19
2022-08-21T15:37:19.759Z,95169.41
2022-08-21T15:39:51.088Z,95164.00
2022-08-21T15:42:20.714Z,95165.19
2022-08-21T15:44:48.693Z,95166.94
2022-08-21T15:47:26.229Z,95163.63
2022-08-21T15:49:52.849Z,95160.81
2022-08-21T15:52:22.163Z,95156.00
2022-08-21T15:54:49.251Z,95165.41
2022-08-21T15:57:21.137Z,95158.78
2022-08-21T15:59:54.496Z,95158.78
2022-08-21T16:02:28.762Z,95155.78
2022-08-21T16:04:55.494Z,95161.06
2022-08-21T16:07:22.070Z,95146.66
2022-08-21T16:09:48.606Z,95139.88
2022-08-21T16:12:23.543Z,95138.16
2022-08-21T16:14:51.951Z,95140.72
2022-08-21T16:17:19.232Z,95145.34
2022-08-21T16:19:46.410Z,95147.56
2022-08-21T16:22:12.959Z,95144.34
2022-08-21T16:24:39.512Z,95151.53
2022-08-21T16:27:08.003Z,95154.03
2022-08-21T16:29:37.425Z,95162.16
2022-08-21T16:32:05.868Z,95163.06
2022-08-21T16:34:32.646Z,95164.00
2022-08-21T16:36:59.270Z,95175.47
2022-08-21T16:39:26.050Z,95174.50
2022-08-21T16:41:52.703Z,95176.91
2022-08-21T16:44:21.874Z,95179.78
2022-08-21T16:46:48.991Z,95178.00
2022-08-21T16:49:15.649Z,95171.78
2022-08-21T16:51:43.433Z,95172.59
2022-08-21T16:54:10.788Z,95178.97
2022-08-21T16:56:40.043Z,95181.38
2022-08-21T16:59:07.696Z,95175.00
2022-08-21T17:01:36.576Z,95191.31
2022-08-21T17:04:03.710Z,95197.22
2022-08-21T17:06:31.285Z,95192.44
2022-08-21T17:08:59.315Z,95207.66
2022-08-21T17:11:37.280Z,95205.06
2022-08-21T17:14:15.104Z,95209.13
2022-08-21T17:16:46.081Z,95195.34
2022-08-21T17:19:13.437Z,95209.44
2022-08-21T17:21:40.146Z,95214.44
2022-08-21T17:24:06.727Z,95219.84
2022-08-21T17:26:33.613Z,95211.22
2022-08-21T17:29:00.711Z,95218.81
2022-08-21T17:31:28.004Z,95213.22
2022-08-21T17:33:54.660Z,95219.44
2022-08-21T17:36:29.491Z,95207.81
2022-08-21T17:38:57.203Z,95207.34
2022-08-21T17:41:24.162Z,95209.03
2022-08-21T17:43:51.657Z,95209.84
2022-08-21T17:46:24.810Z,95221.22
2022-08-21T17:48:51.535Z,95214.84
2022-08-21T17:51:18.541Z,95214.63
2022-08-21T17:53:45.395Z,95219.81
2022-08-21T17:56:15.161Z,95233.81
2022-08-21T17:58:49.565Z,95235.41
2022-08-21T18:01:17.469Z,95237.81
2022-08-21T18:03:47.115Z,95242.44
2022-08-21T18:06:17.427Z,95240.81
2022-08-21T18:08:44.902Z,95239.22
2022-08-21T18:11:11.657Z,95234.13
2022-08-21T18:13:51.980Z,95234.97
2022-08-21T18:16:19.579Z,95237.97
2022-08-21T18:18:49.099Z,95237.19
2022-08-21T18:21:15.839Z,95239.97
2022-08-21T18:23:44.320Z,95238.97
2022-08-21T18:26:14.693Z,95241.97
2022-08-21T18:28:42.284Z,95231.94
2022-08-21T18:31:11.781Z,95232.75
2022-08-21T18:33:43.723Z,95227.66
2022-08-21T18:36:25.354Z,95232.53
2022-08-21T18:38:52.819Z,95243.34
2022-08-21T18:41:19.446Z,95229.84
2022-08-21T18:43:46.164Z,95234.16
2022-08-21T18:46:12.834Z,95232.84
2022-08-21T18:48:40.484Z,95235.13
2022-08-21T18:51:07.107Z,95238.72
2022-08-21T18:53:33.821Z,95238.06
2022-08-21T18:56:05.448Z,95246.03
2022-08-21T18:58:33.309Z,95247.66
2022-08-21T19:01:00.088Z,95250.06
2022-08-21T19:03:26.894Z,95254.84
2022-08-21T19:05:54.836Z,95254.56
2022-08-21T19:08:23.840Z,95251.34
2022-08-21T19:10:55.378Z,95255.38
2022-08-21T19:13:22.912Z,95244.88
2022-08-21T19:15:53.032Z,95246.84
2022-08-21T19:18:27.870Z,95243.84
2022-08-21T19:20:55.437Z,95245.19
2022-08-21T19:23:29.323Z,95248.44
2022-08-21T19:26:12.132Z,95234.97
2022-08-21T19:28:45.967Z,95234.03
2022-08-21T19:31:25.250Z,95231.69
2022-08-21T19:34:01.489Z,95229.16
2022-08-21T19:36:29.057Z,95220.66
2022-08-21T19:38:55.771Z,95233.09
2022-08-21T19:41:25.158Z,95224.41
2022-08-21T19:43:54.669Z,95228.22
2022-08-21T19:46:28.514Z,95230.91
2022-08-21T19:48:55.830Z,95228.22
2022-08-21T19:51:23.317Z,95226.59
2022-08-21T19:53:56.916Z,95229.88
2022-08-21T19:56:26.152Z,95224.19
2022-08-21T19:58:52.817Z,95231.28
2022-08-21T20:01:22.071Z,95229.88
2022-08-21T20:03:53.708Z,95229.16
2022-08-21T20:06:22.091Z,95233.75
2022-08-21T20:08:51.494Z,95233.03
2022-08-21T20:11:26.621Z,95236.38
2022-08-21T20:13:54.340Z,95238.63
2022-08-21T20:16:21.626Z,95229.81
2022-08-21T20:18:49.025Z,95229.06
2022-08-21T20:21:18.660Z,95228.53
2022-08-21T20:23:48.835Z,95227.72
2022-08-21T20:26:16.595Z,95221.81
2022-08-21T20:28:43.612Z,95223.31
2022-08-21T20:31:10.665Z,95221.22
2022-08-21T20:33:37.985Z,95230.69
2022-08-21T20:36:04.932Z,95230.91
2022-08-21T20:38:31.798Z,95221.16
2022-08-21T20:40:59.504Z,95217.38
2022-08-21T20:43:26.790Z,95227.72
2022-08-21T20:45:55.284Z,95229.06
2022-08-21T20:48:49.319Z,95230.69
2022-08-21T20:51:35.952Z,95230.19
2022-08-21T20:54:14.838Z,95231.22
2022-08-21T20:57:00.002Z,95228.84
2022-08-21T20:59:32.946Z,95230.69
2022-08-21T21:02:15.951Z,95223.91
2022-08-21T21:04:47.379Z,95223.91
2022-08-21T21:07:21.387Z,95225.81
2022-08-21T21:09:53.779Z,95228.28
2022-08-21T21:12:28.163Z,95222.47
2022-08-21T21:15:00.413Z,95224.63
2022-08-21T21:17:47.606Z,95233.75
2022-08-21T21:20:21.461Z,95228.84
2022-08-21T21:22:57.593Z,95231.53
2022-08-21T21:25:40.110Z,95235.84
2022-08-21T21:28:13.013Z,95237.44
2022-08-21T21:30:46.507Z,95235.41
2022-08-21T21:33:16.486Z,95231.38
2022-08-21T21:35:51.466Z,95229.50
2022-08-21T21:38:51.494Z,95237.59
2022-08-21T21:41:47.064Z,95228.22
2022-08-21T21:44:35.410Z,95230.63
2022-08-21T21:47:13.553Z,95232.78
2022-08-21T21:49:50.214Z,95230.91
2022-08-21T21:52:38.203Z,95223.38
2022-08-21T21:55:42.889Z,95229.56
2022-08-21T21:58:57.033Z,95233.16
2022-08-21T22:01:34.252Z,95226.13
2022-08-21T22:04:03.953Z,95236.91
2022-08-21T22:06:55.881Z,95230.75
2022-08-21T22:09:37.710Z,95228.06
2022-08-21T22:12:29.912Z,95233.22
2022-08-21T22:14:57.356Z,95232.91
2022-08-21T22:17:41.124Z,95228.13
2022-08-21T22:20:15.235Z,95224.09
2022-08-21T22:23:01.089Z,95234.13
2022-08-21T22:25:33.341Z,95233.06
2022-08-21T22:28:15.859Z,95232.03
2022-08-21T22:31:14.719Z,95237.34
2022-08-21T22:34:05.386Z,95237.09
2022-08-21T22:36:38.200Z,95238.44
2022-08-21T22:39:08.363Z,95243.22
2022-08-21T22:41:41.221Z,95247.03
2022-08-21T22:44:18.195Z,95249.19
2022-08-21T22:46:56.135Z,95241.16
2022-08-21T22:49:34.130Z,95237.34
2022-08-21T22:52:31.859Z,95245.16
2022-08-21T22:55:04.231Z,95227.66
2022-08-21T22:57:34.316Z,95241.63
2022-08-21T23:00:11.011Z,95231.66
2022-08-21T23:02:58.614Z,95233.03
2022-08-21T23:05:36.566Z,95227.66
2022-08-21T23:08:24.177Z,95236.81
2022-08-21T23:10:57.449Z,95229.88
2022-08-21T23:13:24.024Z,95225.63
2022-08-21T23:16:05.747Z,95226.72
2022-08-21T23:18:42.859Z,95224.53
2022-08-21T23:21:15.529Z,95223.16
2022-08-21T23:24:02.587Z,95214.56
2022-08-21T23:26:46.953Z,95218.63
2022-08-21T23:29:47.699Z,95218.94
2022-08-21T23:32:39.188Z,95213.91
2022-08-21T23:35:51.903Z,95218.59
2022-08-21T23:38:50.899Z,95213.56
2022-08-21T23:41:42.743Z,95205.78
2022-08-21T23:44:25.672Z,95207.88
2022-08-21T23:47:30.028Z,95205.44
2022-08-21T23:53:36.187Z,95200.34
2022-08-21T23:56:14.242Z,95201.75
2022-08-21T23:59:34.911Z,95198.06
